Time;durP1;ratioP1;P1;durP2;ratioP2;P2;SDS_P1;SDS_P2;PMS_P1;PMS_P2;Temp;Humidity;BMP_temperature;BMP_pressure;BME280_temperature;BME280_humidity;BME280_pressure;Samples;Min_cycle;Max_cycle;Signal;HPM_P1;HPM_P2
2022/06/25 00:01:23;;;;;;;1999.90;999.90;;;19.30;99.90;;;;;;4975648;28;20421;-67
2022/06/25 00:03:49;;;;;;;1999.90;999.90;;;19.20;99.90;;;;;;4975206;28;20922;-65
2022/06/25 00:06:15;;;;;;;1999.90;999.90;;;19.20;99.90;;;;;;4975255;28;20418;-66
2022/06/25 00:08:44;;;;;;;1999.90;999.90;;;19.20;99.90;;;;;;4975370;28;20439;-65
2022/06/25 00:12:31;;;;;;;1999.90;999.90;;;19.20;99.90;;;;;;4975038;28;20980;-65
2022/06/25 00:13:57;;;;;;;1999.90;999.90;;;19.20;99.90;;;;;;4975157;28;20818;-66
2022/06/25 00:16:23;;;;;;;1999.90;999.90;;;19.10;99.90;;;;;;4974978;28;20994;-66
2022/06/25 00:18:49;;;;;;;1999.90;999.90;;;19.00;99.90;;;;;;4974853;28;20380;-65
2022/06/25 00:21:15;;;;;;;1999.90;999.90;;;19.00;99.90;;;;;;4973986;28;20481;-66
2022/06/25 00:23:40;;;;;;;1999.90;999.90;;;19.10;99.90;;;;;;4975276;28;20183;-65
2022/06/25 00:26:06;;;;;;;1999.90;999.90;;;19.10;99.90;;;;;;4974517;28;20170;-65
2022/06/25 00:28:32;;;;;;;1999.90;999.90;;;19.10;99.90;;;;;;4974939;28;20193;-66
2022/06/25 00:30:57;;;;;;;1999.90;999.90;;;19.10;99.90;;;;;;4975043;28;20224;-67
2022/06/25 00:33:23;;;;;;;1999.90;999.90;;;19.10;99.90;;;;;;4974561;28;20204;-68
2022/06/25 00:35:48;;;;;;;1999.90;999.90;;;19.10;99.90;;;;;;4975115;28;20174;-66
2022/06/25 00:38:14;;;;;;;1999.90;999.90;;;19.10;99.90;;;;;;4974761;28;20360;-65
2022/06/25 00:40:40;;;;;;;1999.90;999.90;;;19.20;99.90;;;;;;4974436;28;20192;-66
2022/06/25 00:43:05;;;;;;;1999.90;999.90;;;19.10;99.90;;;;;;4974859;28;20632;-67
2022/06/25 00:45:31;;;;;;;1999.90;999.90;;;19.10;99.90;;;;;;4974693;28;20268;-65
2022/06/25 00:47:56;;;;;;;1999.90;999.90;;;19.10;99.90;;;;;;4974268;28;20591;-67
2022/06/25 00:50:22;;;;;;;1999.90;999.90;;;19.10;99.90;;;;;;4974317;28;20170;-65
2022/06/25 00:52:52;;;;;;;1999.90;999.90;;;19.10;99.90;;;;;;4974669;28;20288;-66
2022/06/25 00:55:23;;;;;;;1999.90;999.90;;;19.00;99.90;;;;;;4975111;28;20204;-67
2022/06/25 00:57:50;;;;;;;1999.90;999.90;;;19.10;99.90;;;;;;4972971;28;20879;-65
2022/06/25 01:00:17;;;;;;;1999.90;999.90;;;19.00;99.90;;;;;;4974379;28;20509;-69
2022/06/25 01:02:44;;;;;;;1999.90;999.90;;;19.00;99.90;;;;;;4974387;28;20410;-67
2022/06/25 01:05:12;;;;;;;1999.90;999.90;;;19.00;99.90;;;;;;4974254;28;20412;-66
2022/06/25 01:07:39;;;;;;;1999.90;999.90;;;19.00;99.90;;;;;;4974081;28;20432;-68
2022/06/25 01:10:06;;;;;;;1999.90;999.90;;;18.90;99.90;;;;;;4974245;28;20937;-66
2022/06/25 01:12:33;;;;;;;1999.90;999.90;;;18.90;99.90;;;;;;4973912;28;20533;-66
2022/06/25 01:15:01;;;;;;;1999.90;999.90;;;18.90;99.90;;;;;;4974274;28;20410;-67
2022/06/25 01:17:28;;;;;;;1999.90;999.90;;;18.90;99.90;;;;;;4973944;28;20970;-67
2022/06/25 01:19:54;;;;;;;1999.90;999.90;;;18.90;99.90;;;;;;4973730;28;20479;-68
2022/06/25 01:22:20;;;;;;;1999.90;999.90;;;18.90;99.90;;;;;;4974259;28;20953;-65
2022/06/25 01:24:45;;;;;;;1999.90;999.90;;;18.90;99.90;;;;;;4974204;28;20187;-66
2022/06/25 01:27:16;;;;;;;1999.90;999.90;;;18.80;99.90;;;;;;4973310;28;20199;-65
2022/06/25 01:29:42;;;;;;;1999.90;999.90;;;18.80;99.90;;;;;;4973688;28;20169;-66
2022/06/25 01:32:10;;;;;;;1999.90;999.90;;;18.80;99.90;;;;;;4973977;28;20453;-65
2022/06/25 01:34:35;;;;;;;1999.90;999.90;;;18.90;99.90;;;;;;4974302;28;20413;-65
2022/06/25 01:37:01;;;;;;;1999.90;999.90;;;18.80;99.90;;;;;;4973764;28;20810;-66
2022/06/25 01:39:27;;;;;;;1999.90;999.90;;;18.80;99.90;;;;;;4974211;28;20165;-66
2022/06/25 01:41:52;;;;;;;1999.90;999.90;;;18.80;99.90;;;;;;4974180;28;20177;-65
2022/06/25 01:44:18;;;;;;;1999.90;999.90;;;18.70;99.90;;;;;;4974068;28;20173;-65
2022/06/25 01:46:43;;;;;;;1999.90;999.90;;;18.70;99.90;;;;;;4972521;28;20326;-66
2022/06/25 01:49:09;;;;;;;1999.90;999.90;;;18.80;99.90;;;;;;4973955;28;20170;-67
2022/06/25 01:51:34;;;;;;;1999.90;999.90;;;18.90;99.90;;;;;;4973978;28;20193;-65
2022/06/25 01:54:00;;;;;;;1999.90;999.90;;;18.90;99.90;;;;;;4973848;28;20537;-65
2022/06/25 01:56:25;;;;;;;1999.90;999.90;;;18.90;99.90;;;;;;4972880;28;20258;-65
2022/06/25 01:58:51;;;;;;;1999.90;999.90;;;18.90;99.90;;;;;;4973890;28;20647;-66
2022/06/25 02:01:17;;;;;;;1999.90;999.90;;;19.00;99.90;;;;;;4973777;28;20701;-65
2022/06/25 02:03:42;;;;;;;1999.90;999.90;;;19.00;99.90;;;;;;4973761;28;20182;-65
2022/06/25 02:06:08;;;;;;;1999.90;999.90;;;18.90;99.90;;;;;;4973416;28;20635;-65
2022/06/25 02:08:36;;;;;;;1999.90;999.90;;;18.90;99.90;;;;;;4973653;28;20201;-66
2022/06/25 02:11:07;;;;;;;1999.90;999.90;;;18.80;99.90;;;;;;4973616;28;20173;-66
2022/06/25 02:13:34;;;;;;;1999.90;999.90;;;18.80;99.90;;;;;;4973521;28;20517;-65
2022/06/25 02:16:00;;;;;;;1999.90;999.90;;;18.80;99.90;;;;;;4973282;28;20475;-67
2022/06/25 02:18:26;;;;;;;1999.90;999.90;;;18.70;99.90;;;;;;4973354;28;20436;-67
2022/06/25 02:20:52;;;;;;;1999.90;999.90;;;18.60;99.90;;;;;;4973481;28;20441;-67
2022/06/25 02:23:19;;;;;;;1999.90;999.90;;;18.60;99.90;;;;;;4973610;28;20448;-67
2022/06/25 02:25:45;;;;;;;1999.90;999.90;;;18.50;99.90;;;;;;4973514;28;20415;-68
2022/06/25 02:28:11;;;;;;;1999.90;999.90;;;18.50;99.90;;;;;;4973062;28;20928;-68
2022/06/25 02:30:37;;;;;;;1999.90;999.90;;;18.40;99.90;;;;;;4973335;28;20181;-67
2022/06/25 02:33:03;;;;;;;1999.90;999.90;;;18.30;99.90;;;;;;4973215;28;20447;-67
2022/06/25 02:35:29;;;;;;;1999.90;999.90;;;18.20;99.90;;;;;;4973310;28;20172;-67
2022/06/25 02:37:55;;;;;;;1999.90;999.90;;;18.20;99.90;;;;;;4972844;28;20446;-67
2022/06/25 02:40:20;;;;;;;1999.90;999.90;;;18.10;99.90;;;;;;4973353;28;20422;-67
2022/06/25 02:42:46;;;;;;;1999.90;999.90;;;18.10;99.90;;;;;;4973245;28;20216;-66
2022/06/25 02:45:12;;;;;;;1999.90;999.90;;;18.10;99.90;;;;;;4973282;28;20171;-66
2022/06/25 02:47:38;;;;;;;1999.90;999.90;;;18.00;99.90;;;;;;4972862;28;20230;-67
2022/06/25 02:50:05;;;;;;;1999.90;999.90;;;18.00;99.90;;;;;;4973272;28;20180;-68
2022/06/25 02:52:30;;;;;;;1999.90;999.90;;;18.00;99.90;;;;;;4973050;28;20446;-66
2022/06/25 02:54:56;;;;;;;1999.90;999.90;;;17.90;99.90;;;;;;4973168;28;20424;-67
2022/06/25 03:00:07;;;;;;;1999.90;999.90;;;17.90;99.90;;;;;;4973097;28;20210;-67
2022/06/25 03:02:32;;;;;;;1999.90;999.90;;;17.80;99.90;;;;;;4973018;28;20429;-67
2022/06/25 03:04:59;;;;;;;1999.90;999.90;;;17.80;99.90;;;;;;4973149;28;20472;-68
2022/06/25 03:07:25;;;;;;;1999.90;999.90;;;17.80;99.90;;;;;;4973393;28;20227;-67
2022/06/25 03:09:51;;;;;;;1999.90;999.90;;;17.70;99.90;;;;;;4976946;28;20439;-66
2022/06/25 03:12:16;;;;;;;1999.90;999.90;;;17.60;99.90;;;;;;4976798;28;20446;-68
2022/06/25 03:14:42;;;;;;;1999.90;999.90;;;17.60;99.90;;;;;;4976800;28;20672;-68
2022/06/25 03:17:09;;;;;;;1999.90;999.90;;;17.60;99.90;;;;;;4976477;28;20605;-67
2022/06/25 03:19:35;;;;;;;1999.90;999.90;;;17.60;99.90;;;;;;4976760;28;20549;-67
2022/06/25 03:22:01;;;;;;;1999.90;999.90;;;17.60;99.90;;;;;;4976770;28;20385;-67
2022/06/25 03:24:27;;;;;;;1999.90;999.90;;;17.60;99.90;;;;;;4976738;28;20164;-67
2022/06/25 03:26:53;;;;;;;1999.90;999.90;;;17.50;99.90;;;;;;4976275;28;20425;-68
2022/06/25 03:29:18;;;;;;;1999.90;999.90;;;17.60;99.90;;;;;;4976420;28;20416;-67
2022/06/25 03:31:44;;;;;;;1999.90;999.90;;;17.60;99.90;;;;;;4976500;28;20177;-68
2022/06/25 03:34:09;;;;;;;1999.90;999.90;;;17.60;99.90;;;;;;4976598;28;20159;-66
2022/06/25 03:36:35;;;;;;;1999.90;999.90;;;17.60;99.90;;;;;;4975980;28;20175;-67
2022/06/25 03:39:01;;;;;;;1999.90;999.90;;;17.70;99.90;;;;;;4976532;28;20170;-67
2022/06/25 03:41:33;;;;;;;1999.90;999.90;;;17.70;99.90;;;;;;4976397;28;20221;-68
2022/06/25 03:43:59;;;;;;;1999.90;999.90;;;17.70;99.90;;;;;;4976307;28;20392;-67
2022/06/25 03:46:25;;;;;;;1999.90;999.90;;;17.70;99.90;;;;;;4975974;28;20416;-67
2022/06/25 03:48:51;;;;;;;1999.90;999.90;;;17.60;99.90;;;;;;4976340;28;20415;-67
2022/06/25 03:51:17;;;;;;;1999.90;999.90;;;17.60;99.90;;;;;;4976117;28;20762;-67
2022/06/25 03:53:43;;;;;;;1999.90;999.90;;;17.70;99.90;;;;;;4976121;28;20200;-68
2022/06/25 03:56:09;;;;;;;1999.90;999.90;;;17.70;99.90;;;;;;4975748;28;20838;-67
2022/06/25 03:58:35;;;;;;;1999.90;999.90;;;17.80;99.90;;;;;;4975953;28;20194;-67
2022/06/25 04:01:00;;;;;;;1999.90;999.90;;;17.80;99.90;;;;;;4975962;28;20897;-67
2022/06/25 04:03:26;;;;;;;1999.90;999.90;;;17.70;99.90;;;;;;4975952;28;20297;-67
2022/06/25 04:05:52;;;;;;;1999.90;999.90;;;17.80;99.90;;;;;;4975911;28;20175;-67
2022/06/25 04:08:17;;;;;;;1999.90;999.90;;;17.80;99.90;;;;;;4975607;28;20193;-67
2022/06/25 04:10:44;;;;;;;1999.90;999.90;;;17.80;99.90;;;;;;4975738;28;20167;-68
2022/06/25 04:13:10;;;;;;;1999.90;999.90;;;17.80;99.90;;;;;;4975852;28;20656;-67
2022/06/25 04:15:36;;;;;;;1999.90;999.90;;;17.90;99.90;;;;;;4975666;28;20408;-67
2022/06/25 04:18:03;;;;;;;1999.90;999.90;;;17.90;99.90;;;;;;4975429;28;20426;-67
2022/06/25 04:20:29;;;;;;;1999.90;999.90;;;18.00;99.90;;;;;;4974929;28;20406;-67
2022/06/25 04:22:54;;;;;;;1999.90;999.90;;;18.00;99.90;;;;;;4975664;28;20816;-67
2022/06/25 04:25:20;;;;;;;1999.90;999.90;;;18.00;99.90;;;;;;4975542;28;20189;-67
2022/06/25 04:30:30;;;;;;;1999.90;999.90;;;18.10;99.90;;;;;;4975814;28;20271;-67
2022/06/25 04:32:56;;;;;;;1999.90;999.90;;;18.10;99.90;;;;;;4975393;28;20552;-68
2022/06/25 04:35:21;;;;;;;1999.90;999.90;;;18.20;99.90;;;;;;4975380;28;20180;-67
2022/06/25 04:37:47;;;;;;;1999.90;999.90;;;18.20;99.90;;;;;;4974866;28;20261;-66
2022/06/25 04:40:13;;;;;;;1999.90;999.90;;;18.30;99.90;;;;;;4975234;28;20196;-67
2022/06/25 04:42:39;;;;;;;1999.90;999.90;;;18.30;99.90;;;;;;4975268;28;20257;-67
2022/06/25 04:45:05;;;;;;;1999.90;999.90;;;18.30;99.90;;;;;;4975205;28;20413;-67
2022/06/25 04:47:30;;;;;;;1999.90;999.90;;;18.40;99.90;;;;;;4974826;28;20218;-67
2022/06/25 04:49:56;;;;;;;1999.90;999.90;;;18.40;99.90;;;;;;4975153;28;20426;-67
2022/06/25 04:52:22;;;;;;;1999.90;999.90;;;18.50;99.90;;;;;;4974944;28;20253;-67
2022/06/25 04:54:47;;;;;;;1999.90;999.90;;;18.50;99.90;;;;;;4974951;28;20173;-67
2022/06/25 04:57:13;;;;;;;1999.90;999.90;;;18.50;99.90;;;;;;4974630;28;20283;-67
2022/06/25 04:59:38;;;;;;;1999.90;999.90;;;18.60;99.90;;;;;;4974950;28;20175;-68
2022/06/25 05:02:04;;;;;;;1999.90;999.90;;;18.70;99.90;;;;;;4974876;28;20182;-67
2022/06/25 05:04:30;;;;;;;1999.90;999.90;;;18.80;99.90;;;;;;4974834;28;20192;-67
2022/06/25 05:06:55;;;;;;;1999.90;999.90;;;18.80;99.90;;;;;;4974388;28;20274;-66
2022/06/25 05:09:21;;;;;;;1999.90;999.90;;;18.80;99.90;;;;;;4974661;28;20169;-68
2022/06/25 05:11:47;;;;;;;1999.90;999.90;;;18.90;99.90;;;;;;4974653;28;20181;-67
2022/06/25 05:14:12;;;;;;;1999.90;999.90;;;18.90;99.90;;;;;;4974664;28;20544;-68
2022/06/25 05:16:38;;;;;;;1999.90;999.90;;;18.90;99.90;;;;;;4974203;28;20235;-66
2022/06/25 05:19:04;;;;;;;1999.90;999.90;;;19.00;99.90;;;;;;4974662;28;20660;-67
2022/06/25 05:21:29;;;;;;;1999.90;999.90;;;19.00;99.90;;;;;;4974552;28;20848;-67
2022/06/25 05:23:55;;;;;;;1999.90;999.90;;;19.10;99.90;;;;;;4974401;28;20174;-67
2022/06/25 05:26:20;;;;;;;1999.90;999.90;;;19.10;99.90;;;;;;4974129;28;20247;-68
2022/06/25 05:28:46;;;;;;;1999.90;999.90;;;19.20;99.90;;;;;;4974725;28;20185;-66
2022/06/25 05:31:11;;;;;;;1999.90;999.90;;;19.20;99.90;;;;;;4973349;28;20257;-68
2022/06/25 05:33:37;;;;;;;1999.90;999.90;;;19.20;99.90;;;;;;4974285;28;20603;-67
2022/06/25 05:36:03;;;;;;;1999.90;999.90;;;19.30;99.90;;;;;;4974028;28;20200;-68
2022/06/25 05:38:29;;;;;;;1999.90;999.90;;;19.30;99.90;;;;;;5015277;23;20478;-70
2022/06/25 05:40:55;;;;;;;1999.90;999.90;;;19.40;99.90;;;;;;4974215;28;20402;-70
2022/06/25 05:43:22;;;;;;;1999.90;999.90;;;19.50;99.90;;;;;;4974135;28;20181;-69
2022/06/25 05:45:48;;;;;;;1999.90;999.90;;;19.60;99.90;;;;;;4974195;28;20178;-70
2022/06/25 05:48:13;;;;;;;1999.90;999.90;;;19.80;99.90;;;;;;4973821;28;20992;-70
2022/06/25 05:50:39;;;;;;;1999.90;999.90;;;19.80;99.90;;;;;;4973960;28;20921;-70
2022/06/25 05:53:05;;;;;;;1999.90;999.90;;;20.00;99.90;;;;;;4973789;28;20262;-70
2022/06/25 05:55:31;;;;;;;1999.90;999.90;;;20.00;99.90;;;;;;4973891;28;20171;-68
2022/06/25 05:57:58;;;;;;;1999.90;999.90;;;20.10;99.90;;;;;;4973721;28;20438;-70
2022/06/25 06:00:26;;;;;;;1999.90;999.90;;;20.20;99.90;;;;;;4973968;28;20415;-70
2022/06/25 06:02:51;;;;;;;1999.90;999.90;;;20.30;99.90;;;;;;4973803;28;20517;-70
2022/06/25 06:05:17;;;;;;;1999.90;999.90;;;20.40;99.90;;;;;;4973727;28;20472;-70
2022/06/25 06:07:43;;;;;;;1999.90;999.90;;;20.60;99.90;;;;;;4973238;28;20717;-70
2022/06/25 06:10:09;;;;;;;1999.90;999.90;;;20.70;99.90;;;;;;4973699;28;20177;-70
2022/06/25 06:12:34;;;;;;;1999.90;999.90;;;20.70;99.90;;;;;;4973540;28;20213;-70
2022/06/25 06:15:00;;;;;;;1999.90;999.90;;;20.80;99.90;;;;;;4973742;28;20172;-70
2022/06/25 06:17:26;;;;;;;1999.90;999.90;;;20.90;99.90;;;;;;4973201;28;20188;-70
2022/06/25 06:19:51;;;;;;;1999.90;999.90;;;20.90;99.90;;;;;;4973527;28;20190;-70
2022/06/25 06:22:17;;;;;;;1999.90;999.90;;;20.90;99.90;;;;;;4973487;28;20167;-71
2022/06/25 06:24:42;;;;;;;1999.90;999.90;;;20.90;99.90;;;;;;4973487;28;20185;-70
2022/06/25 06:27:09;;;;;;;1999.90;999.90;;;21.10;99.90;;;;;;4973124;28;20277;-71
2022/06/25 06:29:34;;;;;;;1999.90;999.90;;;21.00;99.90;;;;;;4973440;28;20258;-70
2022/06/25 06:32:00;;;;;;;1999.90;999.90;;;21.10;99.90;;;;;;4973319;28;20495;-70
2022/06/25 06:34:26;;;;;;;1999.90;999.90;;;21.20;99.90;;;;;;4973366;28;20217;-70
2022/06/25 06:36:51;;;;;;;1999.90;999.90;;;21.30;99.90;;;;;;4972784;28;20163;-70
2022/06/25 06:39:17;;;;;;;1999.90;999.90;;;21.30;99.90;;;;;;4973599;28;20543;-70
2022/06/25 06:41:43;;;;;;;1999.90;999.90;;;21.30;99.90;;;;;;4973235;28;20641;-70
2022/06/25 06:44:08;;;;;;;1999.90;999.90;;;21.50;99.90;;;;;;4973026;28;20175;-70
2022/06/25 06:46:34;;;;;;;1999.90;999.90;;;21.50;99.90;;;;;;4973002;28;20683;-69
2022/06/25 06:48:59;;;;;;;1999.90;999.90;;;21.50;99.90;;;;;;4973134;28;20188;-70
2022/06/25 06:51:25;;;;;;;1999.90;999.90;;;21.50;99.90;;;;;;4973068;28;20183;-70
2022/06/25 06:53:50;;;;;;;1999.90;999.90;;;21.60;99.90;;;;;;4973078;28;20199;-70
2022/06/25 06:56:16;;;;;;;1999.90;999.90;;;21.60;99.90;;;;;;4972847;28;20201;-70
2022/06/25 06:58:42;;;;;;;1999.90;999.90;;;21.60;99.90;;;;;;4973016;28;20279;-70
2022/06/25 07:01:07;;;;;;;1999.90;999.90;;;21.70;99.90;;;;;;4973054;28;20169;-71
2022/06/25 07:03:33;;;;;;;1999.90;999.90;;;21.80;99.90;;;;;;4973116;28;20175;-70
2022/06/25 07:05:59;;;;;;;1999.90;999.90;;;21.80;99.90;;;;;;4972665;28;20227;-70
2022/06/25 07:08:24;;;;;;;1999.90;999.90;;;21.80;99.90;;;;;;4972960;28;20276;-71
2022/06/25 07:10:50;;;;;;;1999.90;999.90;;;21.90;99.90;;;;;;4973189;28;20203;-70
2022/06/25 07:13:16;;;;;;;1999.90;999.90;;;22.00;99.90;;;;;;4972992;28;20200;-71
2022/06/25 07:15:42;;;;;;;1999.90;999.90;;;22.00;99.90;;;;;;4972912;28;20172;-71
2022/06/25 07:18:08;;;;;;;1999.90;999.90;;;22.00;99.90;;;;;;4972631;28;20391;-70
2022/06/25 07:20:34;;;;;;;1999.90;999.90;;;22.10;99.90;;;;;;4972754;28;20291;-70
2022/06/25 07:23:00;;;;;;;1999.90;999.90;;;22.10;99.90;;;;;;4972922;28;20175;-71
2022/06/25 07:25:25;;;;;;;1999.90;999.90;;;22.20;99.90;;;;;;4972884;28;20413;-70
2022/06/25 07:27:51;;;;;;;1999.90;999.90;;;22.30;99.90;;;;;;4972506;28;20200;-70
2022/06/25 07:30:17;;;;;;;1999.90;999.90;;;22.40;99.90;;;;;;4972859;28;20184;-71
2022/06/25 07:32:43;;;;;;;1999.90;999.90;;;22.40;99.90;;;;;;4972774;28;20204;-70
2022/06/25 07:35:09;;;;;;;1999.90;999.90;;;22.50;99.90;;;;;;4972713;28;20382;-70
2022/06/25 07:37:35;;;;;;;1999.90;999.90;;;22.60;99.90;;;;;;4972352;28;20435;-71
2022/06/25 07:40:01;;;;;;;1999.90;999.90;;;22.60;99.90;;;;;;4971501;28;20226;-70
2022/06/25 07:42:28;;;;;;;1999.90;999.90;;;22.60;99.90;;;;;;4972766;28;20801;-70
2022/06/25 07:44:53;;;;;;;1999.90;999.90;;;22.60;99.90;;;;;;4972668;28;20169;-70
2022/06/25 07:47:19;;;;;;;1999.90;999.90;;;22.60;99.90;;;;;;4972318;28;20519;-70
2022/06/25 07:52:29;;;;;;;1999.90;999.90;;;22.80;99.90;;;;;;4972683;28;20204;-71
2022/06/25 07:54:54;;;;;;;1999.90;999.90;;;22.70;99.90;;;;;;4973995;28;20419;-71
2022/06/25 07:57:20;;;;;;;1999.90;999.90;;;22.80;99.90;;;;;;4975761;28;20655;-71
2022/06/25 07:59:46;;;;;;;1999.90;999.90;;;23.00;99.90;;;;;;4976075;28;20256;-71
2022/06/25 08:02:11;;;;;;;1999.90;999.90;;;23.00;99.90;;;;;;4976037;28;20179;-71
2022/06/25 08:04:37;;;;;;;1999.90;999.90;;;23.00;99.90;;;;;;4974968;28;20176;-70
2022/06/25 08:07:03;;;;;;;1999.90;999.90;;;23.20;99.90;;;;;;4975526;28;20659;-71
2022/06/25 08:09:29;;;;;;;1999.90;999.90;;;23.30;99.90;;;;;;4975869;28;20178;-71
2022/06/25 08:11:55;;;;;;;1999.90;999.90;;;23.40;99.90;;;;;;4975763;28;20500;-71
2022/06/25 08:14:21;;;;;;;1999.90;999.90;;;23.50;99.90;;;;;;4975702;28;20467;-70
2022/06/25 08:16:47;;;;;;;1999.90;999.90;;;23.50;99.90;;;;;;4975327;28;20185;-71
2022/06/25 08:19:12;;;;;;;1999.90;999.90;;;23.70;99.90;;;;;;4975719;28;20603;-70
2022/06/25 08:21:38;;;;;;;1999.90;999.90;;;23.80;99.90;;;;;;4975661;28;20756;-69
2022/06/25 08:24:04;;;;;;;1999.90;999.90;;;24.00;99.90;;;;;;4975617;28;20615;-71
2022/06/25 08:26:30;;;;;;;1999.90;999.90;;;24.20;99.90;;;;;;4975427;28;20181;-71
2022/06/25 08:28:55;;;;;;;1999.90;999.90;;;24.50;99.90;;;;;;4975391;28;20400;-71
2022/06/25 08:31:23;;;;;;;1999.90;999.90;;;24.60;99.90;;;;;;4975449;28;20179;-71
2022/06/25 08:33:48;;;;;;;1999.90;999.90;;;24.70;99.90;;;;;;4975341;28;20237;-71
2022/06/25 08:36:14;;;;;;;1999.90;999.90;;;24.90;99.90;;;;;;4975132;28;20509;-70
2022/06/25 08:38:39;;;;;;;1999.90;999.90;;;25.00;99.90;;;;;;4975239;28;20209;-70
2022/06/25 08:41:05;;;;;;;1999.90;999.90;;;24.90;99.90;;;;;;4975281;28;20309;-70
2022/06/25 08:43:31;;;;;;;1999.90;999.90;;;24.90;99.90;;;;;;4975312;28;20173;-69
2022/06/25 08:45:56;;;;;;;1999.90;999.90;;;24.90;99.90;;;;;;4975020;28;20225;-71
2022/06/25 08:48:27;;;;;;;1999.90;999.90;;;24.90;99.90;;;;;;4974987;28;20429;-71
2022/06/25 08:50:54;;;;;;;1999.90;999.90;;;24.90;99.90;;;;;;4975208;28;20257;-69
2022/06/25 08:53:21;;;;;;;1999.90;999.90;;;24.90;99.90;;;;;;4975031;28;20553;-71
2022/06/25 08:55:47;;;;;;;1999.90;999.90;;;25.00;99.90;;;;;;4975078;28;20387;-71
2022/06/25 08:58:14;;;;;;;1999.90;999.90;;;24.90;99.90;;;;;;4974790;28;20775;-71
2022/06/25 09:00:42;;;;;;;1999.90;999.90;;;24.90;99.90;;;;;;4975186;28;20384;-70
2022/06/25 09:03:08;;;;;;;1999.90;999.90;;;24.80;99.90;;;;;;4974912;28;20464;-70
2022/06/25 09:05:42;;;;;;;1999.90;999.90;;;24.90;99.90;;;;;;4974652;28;20484;-70
2022/06/25 09:08:13;;;;;;;1999.90;999.90;;;25.00;99.90;;;;;;4974583;28;20487;-71
2022/06/25 09:10:41;;;;;;;1999.90;999.90;;;25.20;99.90;;;;;;4974851;28;20418;-71
2022/06/25 09:13:09;;;;;;;1999.90;999.90;;;25.30;99.90;;;;;;4975074;28;20919;-71
2022/06/25 09:15:39;;;;;;;1999.90;999.90;;;25.30;99.90;;;;;;4974739;28;20413;-70
2022/06/25 09:18:13;;;;;;;1999.90;999.90;;;25.30;99.90;;;;;;4974591;28;20455;-71
2022/06/25 09:21:07;;;;;;;1999.90;999.90;;;25.30;99.90;;;;;;4974650;28;20384;-71
2022/06/25 09:23:52;;;;;;;1999.90;999.90;;;25.50;99.90;;;;;;4974591;28;20391;-71
2022/06/25 09:26:18;;;;;;;1999.90;999.90;;;25.60;99.90;;;;;;4974352;28;20419;-70
2022/06/25 09:28:46;;;;;;;1999.90;999.90;;;25.80;99.90;;;;;;4974397;28;20429;-71
2022/06/25 09:31:12;;;;;;;1999.90;999.90;;;26.00;99.90;;;;;;4974365;28;20185;-69
2022/06/25 09:33:39;;;;;;;1999.90;999.90;;;26.20;99.90;;;;;;4974017;28;20461;-69
2022/06/25 09:36:09;;;;;;;1999.90;999.90;;;26.30;99.90;;;;;;4974030;28;20886;-70
2022/06/25 09:38:47;;;;;;;1999.90;999.90;;;26.40;99.90;;;;;;4974130;28;20942;-70
2022/06/25 09:41:13;;;;;;;1999.90;999.90;;;26.50;99.90;;;;;;4974360;28;20928;-70
2022/06/25 09:43:41;;;;;;;1999.90;999.90;;;26.70;99.90;;;;;;4974133;28;20413;-70
2022/06/25 09:46:07;;;;;;;1999.90;999.90;;;26.50;99.90;;;;;;4973752;28;20170;-70
2022/06/25 09:48:35;;;;;;;1999.90;999.90;;;26.40;99.90;;;;;;4974090;28;20504;-70
2022/06/25 09:51:19;;;;;;;1999.90;999.90;;;26.20;99.90;;;;;;4974028;28;20174;-69
2022/06/25 09:53:48;;;;;;;1999.90;999.90;;;26.10;99.90;;;;;;4973981;28;20984;-70
2022/06/25 09:56:20;;;;;;;1999.90;999.90;;;25.90;99.90;;;;;;4973635;28;20425;-70
2022/06/25 09:58:46;;;;;;;1999.90;999.90;;;25.90;99.90;;;;;;4973750;28;20397;-70
2022/06/25 10:01:16;;;;;;;1999.90;999.90;;;25.90;99.90;;;;;;4974006;28;20780;-70
2022/06/25 10:03:42;;;;;;;1999.90;999.90;;;25.90;99.90;;;;;;4973883;28;20776;-70
2022/06/25 10:06:08;;;;;;;1999.90;999.90;;;26.00;99.90;;;;;;4973427;28;20405;-71
2022/06/25 10:08:35;;;;;;;1999.90;999.90;;;26.00;99.90;;;;;;4973246;28;20436;-70
2022/06/25 10:11:04;;;;;;;1999.90;999.90;;;26.00;99.90;;;;;;4973433;28;20405;-71
2022/06/25 10:13:30;;;;;;;1999.90;999.90;;;26.00;99.90;;;;;;4973568;28;20972;-71
2022/06/25 10:15:57;;;;;;;1999.90;999.90;;;26.00;99.90;;;;;;4973429;28;20404;-67
2022/06/25 10:18:25;;;;;;;1999.90;999.90;;;25.90;99.90;;;;;;4972782;28;20419;-70
2022/06/25 10:20:51;;;;;;;1999.90;999.90;;;25.90;99.90;;;;;;4973592;28;20384;-70
2022/06/25 10:23:17;;;;;;;1999.90;999.90;;;26.20;99.90;;;;;;4973486;28;20395;-70
2022/06/25 10:25:43;;;;;;;1999.90;999.90;;;26.70;99.90;;;;;;4973482;28;20406;-70
2022/06/25 10:28:12;;;;;;;1999.90;999.90;;;27.20;99.90;;;;;;4973080;28;20836;-70
2022/06/25 10:30:52;;;;;;;1999.90;999.90;;;27.40;97.90;;;;;;4973553;28;20418;-70
2022/06/25 10:33:24;;;;;;;1999.90;999.90;;;27.70;99.00;;;;;;4973286;28;20523;-71
2022/06/25 10:35:51;;;;;;;1999.90;999.90;;;27.70;94.60;;;;;;4973412;28;20413;-69
2022/06/25 10:38:22;;;;;;;1999.90;999.90;;;27.40;95.90;;;;;;4972893;28;20846;-70
2022/06/25 10:40:58;;;;;;;1999.90;999.90;;;27.10;96.90;;;;;;4973453;28;21130;-70
2022/06/25 10:43:34;;;;;;;1999.90;999.90;;;26.70;97.10;;;;;;4973308;28;20402;-70
2022/06/25 10:45:59;;;;;;;1999.90;999.90;;;26.40;98.00;;;;;;4973143;28;20927;-69
2022/06/25 10:48:29;;;;;;;1999.90;999.90;;;26.20;98.20;;;;;;4973404;28;20436;-69
2022/06/25 10:50:55;;;;;;;1999.90;999.90;;;26.00;98.30;;;;;;4973167;28;20642;-69
2022/06/25 10:53:24;;;;;;;1999.90;999.90;;;25.80;99.00;;;;;;4973088;28;20612;-70
2022/06/25 10:55:49;;;;;;;1999.90;999.90;;;25.70;99.10;;;;;;4973100;28;21086;-70
2022/06/25 10:58:21;;;;;;;1999.90;999.90;;;25.70;99.90;;;;;;4972842;28;20432;-70
2022/06/25 11:00:58;;;;;;;1999.90;999.90;;;25.70;99.90;;;;;;4973101;28;20562;-70
2022/06/25 11:03:30;;;;;;;1999.90;999.90;;;25.80;99.90;;;;;;4973029;28;20388;-68
2022/06/25 11:05:57;;;;;;;1999.90;999.90;;;26.00;99.90;;;;;;4972884;28;20410;-70
2022/06/25 11:08:34;;;;;;;1999.90;999.90;;;26.10;99.90;;;;;;4972982;28;20400;-70
2022/06/25 11:11:00;;;;;;;1999.90;999.90;;;26.20;99.90;;;;;;4973068;28;20416;-70
2022/06/25 11:13:27;;;;;;;1999.90;999.90;;;26.30;99.90;;;;;;4973037;28;20980;-70
2022/06/25 11:15:53;;;;;;;1999.90;999.90;;;26.50;99.70;;;;;;4972787;28;20182;-69
2022/06/25 11:18:19;;;;;;;1999.90;999.90;;;26.60;99.90;;;;;;4972663;28;20438;-70
2022/06/25 11:20:46;;;;;;;1999.90;999.90;;;26.80;99.00;;;;;;4972946;28;20504;-69
2022/06/25 11:23:13;;;;;;;1999.90;999.90;;;26.90;97.10;;;;;;4972941;28;20177;-71
2022/06/25 11:28:48;;;;;;;1999.90;999.90;;;27.30;96.80;;;;;;4973972;28;20989;-70
2022/06/25 11:31:23;;;;;;;1999.90;999.90;;;27.60;96.60;;;;;;4976539;28;20492;-69
2022/06/25 11:33:50;;;;;;;1999.90;999.90;;;27.70;95.80;;;;;;4976527;28;20552;-70
2022/06/25 11:36:16;;;;;;;1999.90;999.90;;;27.70;91.90;;;;;;4976293;28;20413;-70
2022/06/25 11:38:48;;;;;;;1999.90;999.90;;;27.60;92.20;;;;;;4976745;28;20445;-68
2022/06/25 11:41:26;;;;;;;1999.90;999.90;;;27.40;93.80;;;;;;4976683;28;20970;-68
2022/06/25 11:43:56;;;;;;;1999.90;999.90;;;27.00;93.30;;;;;;4974030;28;20433;-68
2022/06/25 11:46:22;;;;;;;1999.90;999.90;;;26.80;93.40;;;;;;4975235;28;20826;-67
2022/06/25 11:48:49;;;;;;;1999.90;999.90;;;26.60;95.10;;;;;;4975696;28;20964;-67
2022/06/25 11:51:25;;;;;;;1999.90;999.90;;;26.40;95.60;;;;;;4972192;28;20809;-69
2022/06/25 11:53:52;;;;;;;1999.90;999.90;;;26.10;97.40;;;;;;4975261;28;20552;-69
2022/06/25 11:56:18;;;;;;;1999.90;999.90;;;26.00;98.30;;;;;;4975206;28;20417;-68
2022/06/25 11:58:46;;;;;;;1999.90;999.90;;;26.10;98.10;;;;;;4974777;28;20480;-68
2022/06/25 12:01:12;;;;;;;1999.90;999.90;;;26.20;99.90;;;;;;4975242;28;20640;-68
2022/06/25 12:03:38;;;;;;;1999.90;999.90;;;26.30;99.90;;;;;;4975108;28;20440;-68
2022/06/25 12:06:05;;;;;;;1999.90;999.90;;;26.30;99.90;;;;;;4974937;28;21194;-69
2022/06/25 12:08:31;;;;;;;1999.90;999.90;;;26.40;99.90;;;;;;4975265;28;20241;-69